Time;durP1;ratioP1;P1;durP2;ratioP2;P2;SDS_P1;SDS_P2;PMS_P1;PMS_P2;Temp;Humidity;BMP_temperature;BMP_pressure;BME280_temperature;BME280_humidity;BME280_pressure;Samples;Min_cycle;Max_cycle;Signal;HPM_P1;HPM_P2
2024/02/15 00:00:00;;;;;;;0.30;0.30;;;;;;;10.18;100.00;99612.91;5031615;28;20064;-58
2024/02/15 00:02:27;;;;;;;0.20;0.20;;;;;;;10.10;100.00;99612.19;5029690;28;20041;-59
2024/02/15 00:04:54;;;;;;;0.20;0.20;;;;;;;10.20;100.00;99610.81;5029538;28;20454;-59
2024/02/15 00:07:23;;;;;;;0.20;0.20;;;;;;;10.14;100.00;99608.03;5028590;28;20177;-58
2024/02/15 00:09:50;;;;;;;0.20;0.20;;;;;;;10.13;100.00;99611.75;5036976;28;20041;-58
2024/02/15 00:12:17;;;;;;;0.20;0.20;;;;;;;10.17;100.00;99613.97;5028525;28;20063;-59
2024/02/15 00:14:45;;;;;;;0.20;0.20;;;;;;;10.14;100.00;99610.69;5030116;28;20089;-58
2024/02/15 00:17:13;;;;;;;0.20;0.20;;;;;;;10.18;100.00;99615.59;5024191;28;20049;-58
2024/02/15 00:19:41;;;;;;;0.30;0.30;;;;;;;10.08;100.00;99603.59;5040727;28;21370;-58
2024/02/15 00:22:09;;;;;;;0.20;0.20;;;;;;;10.14;100.00;99613.38;5037947;28;20395;-58
2024/02/15 00:24:41;;;;;;;0.30;0.30;;;;;;;10.14;100.00;99612.56;5028976;28;20053;-59
2024/02/15 00:27:09;;;;;;;0.20;0.20;;;;;;;10.15;100.00;99615.00;5028045;28;20137;-58
2024/02/15 00:29:40;;;;;;;0.20;0.20;;;;;;;10.10;100.00;99614.88;5038597;28;20474;-58
2024/02/15 00:32:08;;;;;;;0.20;0.20;;;;;;;10.13;100.00;99617.13;5034661;28;20056;-58
2024/02/15 00:34:35;;;;;;;0.20;0.20;;;;;;;10.12;100.00;99615.47;5042110;28;20159;-59
2024/02/15 00:37:02;;;;;;;0.20;0.20;;;;;;;10.14;100.00;99613.38;5029020;28;20557;-59
2024/02/15 00:39:29;;;;;;;0.20;0.20;;;;;;;10.12;100.00;99615.47;5039796;28;20120;-59
2024/02/15 00:42:00;;;;;;;0.20;0.20;;;;;;;10.14;100.00;99617.91;5034417;28;20060;-59
2024/02/15 00:44:27;;;;;;;0.20;0.20;;;;;;;10.14;100.00;99618.72;5033848;28;20056;-59
2024/02/15 00:46:54;;;;;;;0.20;0.20;;;;;;;10.18;100.00;99624.44;5026487;28;20084;-58
2024/02/15 00:49:21;;;;;;;0.20;0.20;;;;;;;10.18;100.00;99610.22;5038166;28;20126;-58
2024/02/15 00:51:48;;;;;;;0.20;0.20;;;;;;;10.27;100.00;99606.19;5037272;28;21126;-59
2024/02/15 00:54:16;;;;;;;0.20;0.20;;;;;;;10.27;100.00;99609.66;5030138;28;20499;-58
2024/02/15 00:56:43;;;;;;;0.20;0.20;;;;;;;10.22;100.00;99614.09;5041029;28;20046;-58
2024/02/15 00:59:11;;;;;;;0.28;0.28;;;;;;;10.25;100.00;99614.44;5034020;28;20041;-59
2024/02/15 01:01:38;;;;;;;0.20;0.20;;;;;;;10.21;100.00;99609.75;5038139;28;20049;-59
2024/02/15 01:04:06;;;;;;;0.25;0.25;;;;;;;10.19;100.00;99611.88;5035702;28;20053;-58
2024/02/15 01:06:33;;;;;;;0.20;0.20;;;;;;;10.21;100.00;99612.44;5031901;28;20056;-58
2024/02/15 01:09:02;;;;;;;0.30;0.30;;;;;;;10.20;100.00;99618.84;5039413;28;20045;-59
2024/02/15 01:11:29;;;;;;;0.20;0.20;;;;;;;10.25;100.00;99618.97;5030296;28;20048;-58
2024/02/15 01:13:56;;;;;;;0.20;0.20;;;;;;;10.27;100.00;99616.88;5033594;28;20136;-59
2024/02/15 01:16:25;;;;;;;0.28;0.28;;;;;;;10.21;100.00;99623.16;5033294;28;20045;-59
2024/02/15 01:18:52;;;;;;;0.30;0.30;;;;;;;10.15;100.00;99628.38;5032670;28;20041;-59
2024/02/15 01:21:20;;;;;;;0.30;0.30;;;;;;;10.13;100.00;99630.50;5032574;28;20041;-58
2024/02/15 01:23:47;;;;;;;0.20;0.20;;;;;;;10.15;100.00;99630.25;5038376;28;20041;-58
2024/02/15 01:26:14;;;;;;;0.25;0.25;;;;;;;10.19;100.00;99630.63;5035153;28;20061;-58
2024/02/15 01:28:43;;;;;;;0.20;0.20;;;;;;;10.16;100.00;99631.91;5031748;28;20100;-58
2024/02/15 01:31:11;;;;;;;0.20;0.20;;;;;;;10.17;100.00;99632.72;5038786;28;20049;-58
2024/02/15 01:33:39;;;;;;;0.20;0.20;;;;;;;10.20;100.00;99624.22;5035193;28;20051;-59
2024/02/15 01:36:07;;;;;;;0.20;0.20;;;;;;;10.23;100.00;99632.59;5032786;28;20176;-58
2024/02/15 01:38:34;;;;;;;0.30;0.30;;;;;;;10.27;100.00;99628.41;5033366;28;20433;-59
2024/02/15 01:41:03;;;;;;;0.30;0.30;;;;;;;10.31;100.00;99628.81;5026491;28;20155;-59
2024/02/15 01:43:30;;;;;;;0.20;0.20;;;;;;;10.23;100.00;99632.59;5038112;28;20067;-59
2024/02/15 01:46:01;;;;;;;0.20;0.20;;;;;;;10.26;100.00;99632.16;5016410;28;20156;-58
2024/02/15 01:48:28;;;;;;;0.20;0.20;;;;;;;10.30;100.00;99633.34;5036457;28;20049;-58
2024/02/15 01:50:59;;;;;;;0.20;0.20;;;;;;;10.29;100.00;99625.56;5027504;28;20490;-59
2024/02/15 01:53:27;;;;;;;0.20;0.20;;;;;;;10.25;100.00;99621.66;5035682;28;20066;-58
2024/02/15 01:55:57;;;;;;;0.20;0.20;;;;;;;10.29;100.00;99626.38;5052259;28;20036;-59
2024/02/15 01:58:24;;;;;;;0.30;0.30;;;;;;;10.28;100.00;99626.59;5032477;28;20048;-58
2024/02/15 02:00:52;;;;;;;0.17;0.17;;;;;;;10.31;100.00;99623.47;5032478;28;20499;-58
2024/02/15 02:03:19;;;;;;;0.20;0.20;;;;;;;10.31;100.00;99621.59;5031544;28;20123;-59
2024/02/15 02:05:46;;;;;;;0.20;0.20;;;;;;;10.28;100.00;99619.38;5038281;28;20053;-58
2024/02/15 02:08:14;;;;;;;0.20;0.20;;;;;;;10.26;100.00;99613.41;5034905;28;20069;-58
2024/02/15 02:10:42;;;;;;;0.17;0.17;;;;;;;10.30;100.00;99619.13;5007138;28;20052;-58
2024/02/15 02:13:09;;;;;;;0.28;0.28;;;;;;;10.32;100.00;99609.81;5034682;28;20045;-58
2024/02/15 02:15:37;;;;;;;0.10;0.10;;;;;;;10.24;100.00;99620.03;5038328;28;20049;-59
2024/02/15 02:18:06;;;;;;;0.20;0.20;;;;;;;10.31;100.00;99610.06;5034390;28;20048;-59
2024/02/15 02:20:34;;;;;;;0.10;0.10;;;;;;;10.25;100.00;99611.75;5033041;28;20126;-58
2024/02/15 02:23:07;;;;;;;0.20;0.20;;;;;;;10.21;100.00;99612.44;5032705;28;20056;-59
2024/02/15 02:25:35;;;;;;;0.20;0.20;;;;;;;10.25;100.00;99605.59;5036557;28;20694;-59
2024/02/15 02:28:02;;;;;;;0.22;0.22;;;;;;;10.24;100.00;99606.66;5029501;28;20533;-58
2024/02/15 02:30:30;;;;;;;0.20;0.20;;;;;;;10.28;100.00;99605.16;5025341;28;20095;-59
2024/02/15 02:32:58;;;;;;;0.30;0.30;;;;;;;10.32;100.00;99604.47;5028962;28;20053;-59
2024/02/15 02:35:26;;;;;;;0.20;0.20;;;;;;;10.35;100.00;99592.47;5034233;28;20724;-58
2024/02/15 02:37:54;;;;;;;0.20;0.20;;;;;;;10.33;100.00;99599.91;5030318;28;20415;-58
2024/02/15 02:40:21;;;;;;;0.20;0.20;;;;;;;10.36;100.00;99594.91;5036684;28;20402;-58
2024/02/15 02:42:51;;;;;;;0.20;0.20;;;;;;;10.36;100.00;99599.47;5034135;28;20559;-59
2024/02/15 02:45:19;;;;;;;0.30;0.30;;;;;;;10.36;100.00;99599.47;5033533;28;20886;-58
2024/02/15 02:47:47;;;;;;;0.20;0.20;;;;;;;10.35;100.00;99595.94;5039000;28;20053;-59
2024/02/15 02:50:14;;;;;;;0.20;0.20;;;;;;;10.38;100.00;99597.34;5034896;28;20397;-58
2024/02/15 02:52:41;;;;;;;0.20;0.20;;;;;;;10.38;100.00;99602.72;5040782;28;20131;-58
2024/02/15 02:55:09;;;;;;;0.20;0.20;;;;;;;10.43;100.00;99599.34;5031870;28;20488;-58
2024/02/15 02:57:37;;;;;;;0.20;0.20;;;;;;;10.43;100.00;99605.50;5030152;28;20631;-58
2024/02/15 03:00:07;;;;;;;0.20;0.20;;;;;;;10.42;100.00;99595.84;5035858;28;20041;-58
2024/02/15 03:02:36;;;;;;;0.20;0.20;;;;;;;10.43;100.00;99588.63;5028196;28;20041;-58
2024/02/15 03:05:04;;;;;;;0.20;0.20;;;;;;;10.48;100.00;99586.06;5034016;28;20135;-58
2024/02/15 03:07:36;;;;;;;0.20;0.20;;;;;;;10.41;100.00;99586.19;5037702;28;20418;-58
2024/02/15 03:10:08;;;;;;;0.20;0.20;;;;;;;10.42;100.00;99593.16;5029680;28;20064;-58
2024/02/15 03:12:36;;;;;;;0.30;0.30;;;;;;;10.48;100.00;99589.56;5029878;28;20044;-58
2024/02/15 03:15:07;;;;;;;0.20;0.20;;;;;;;10.47;100.00;99593.28;5029509;28;20048;-58
2024/02/15 03:17:34;;;;;;;0.20;0.20;;;;;;;10.53;100.00;99592.38;5033331;28;20041;-58
2024/02/15 03:20:02;;;;;;;0.22;0.22;;;;;;;10.50;100.00;99590.13;5025059;28;20046;-58
2024/02/15 03:22:30;;;;;;;0.20;0.20;;;;;;;10.49;100.00;99585.84;5030998;28;20046;-57
2024/02/15 03:24:57;;;;;;;0.30;0.30;;;;;;;10.49;100.00;99583.16;5033365;28;20146;-58
2024/02/15 03:27:24;;;;;;;0.20;0.20;;;;;;;10.50;100.00;99582.09;5030021;28;20118;-58
2024/02/15 03:29:52;;;;;;;0.20;0.20;;;;;;;10.51;100.00;99586.44;5034847;28;20037;-58
2024/02/15 03:32:21;;;;;;;0.20;0.20;;;;;;;10.52;100.00;99571.16;5031794;28;20113;-58
2024/02/15 03:34:48;;;;;;;0.30;0.30;;;;;;;10.53;100.00;99568.25;5035036;28;20052;-58
2024/02/15 03:37:15;;;;;;;0.20;0.20;;;;;;;10.51;100.00;99575.69;5035364;28;20797;-58
2024/02/15 03:39:42;;;;;;;0.20;0.20;;;;;;;10.39;100.00;99560.69;5029994;28;20049;-58
2024/02/15 03:42:10;;;;;;;0.20;0.20;;;;;;;10.42;100.00;99562.88;5035573;28;20051;-58
2024/02/15 03:44:38;;;;;;;0.30;0.30;;;;;;;10.29;100.00;99555.91;5036834;28;20090;-58
2024/02/15 03:47:05;;;;;;;0.20;0.20;;;;;;;10.32;100.00;99556.22;5031693;28;20056;-58
2024/02/15 03:49:33;;;;;;;0.28;0.28;;;;;;;10.30;100.00;99557.50;5037155;28;20045;-58
2024/02/15 03:52:01;;;;;;;0.20;0.20;;;;;;;10.20;100.00;99559.94;5030407;28;20092;-58
2024/02/15 03:54:31;;;;;;;0.30;0.30;;;;;;;10.23;100.00;99554.09;5025884;28;20522;-58
2024/02/15 03:56:58;;;;;;;0.22;0.22;;;;;;;10.28;100.00;99554.25;5036831;28;20147;-58
2024/02/15 03:59:26;;;;;;;0.13;0.13;;;;;;;10.23;100.00;99552.22;5033289;28;21013;-58
2024/02/15 04:01:53;;;;;;;0.25;0.25;;;;;;;10.14;100.00;99559.81;5036747;28;20045;-58
2024/02/15 04:04:21;;;;;;;0.15;0.15;;;;;;;10.06;100.00;99562.84;5028980;28;20403;-58
2024/02/15 04:06:50;;;;;;;0.20;0.20;;;;;;;10.04;100.00;99556.06;5031355;28;20053;-58
2024/02/15 04:09:17;;;;;;;0.30;0.30;;;;;;;9.97;100.00;99558.03;5034717;28;20049;-58
2024/02/15 04:11:46;;;;;;;0.30;0.30;;;;;;;9.91;100.00;99562.47;5033414;28;20045;-58
2024/02/15 04:14:14;;;;;;;0.30;0.30;;;;;;;9.83;100.00;99566.25;5028021;28;20044;-58
2024/02/15 04:16:41;;;;;;;0.20;0.20;;;;;;;9.82;100.00;99572.66;5035898;28;20072;-57
2024/02/15 04:19:08;;;;;;;0.20;0.20;;;;;;;9.77;100.00;99569.06;5029679;28;20114;-58
2024/02/15 04:21:36;;;;;;;0.20;0.20;;;;;;;9.44;100.00;99567.66;5027589;28;20103;-58
2024/02/15 04:24:08;;;;;;;0.20;0.20;;;;;;;9.62;100.00;99562.25;5033348;28;20110;-58
2024/02/15 04:26:41;;;;;;;0.30;0.30;;;;;;;9.58;100.00;99565.59;5034135;28;20052;-58
2024/02/15 04:29:10;;;;;;;0.30;0.30;;;;;;;9.53;100.00;99571.63;5029872;28;20045;-58
2024/02/15 04:31:42;;;;;;;0.20;0.20;;;;;;;9.51;100.00;99565.72;5028763;28;20045;-58
2024/02/15 04:34:10;;;;;;;0.20;0.20;;;;;;;9.48;100.00;99571.50;5033950;28;20056;-58
2024/02/15 04:36:38;;;;;;;0.30;0.30;;;;;;;9.50;100.00;99572.09;5022220;28;20434;-58
2024/02/15 04:39:11;;;;;;;0.28;0.28;;;;;;;9.50;100.00;99575.59;5029617;28;20111;-58
2024/02/15 04:41:42;;;;;;;0.20;0.20;;;;;;;9.49;100.00;99567.81;5035547;28;20053;-58
2024/02/15 04:44:11;;;;;;;0.20;0.20;;;;;;;9.33;100.00;99577.25;5037447;28;20041;-58
2024/02/15 04:46:38;;;;;;;0.20;0.20;;;;;;;9.42;100.00;99567.06;5031830;28;20053;-58
2024/02/15 04:49:08;;;;;;;0.30;0.30;;;;;;;9.49;100.00;99565.94;5025075;28;20091;-58
2024/02/15 04:51:36;;;;;;;0.23;0.23;;;;;;;9.57;100.00;99559.44;5031110;28;20052;-58
2024/02/15 04:54:04;;;;;;;0.30;0.30;;;;;;;9.61;100.00;99557.13;5031995;28;20407;-59
2024/02/15 04:56:33;;;;;;;0.25;0.25;;;;;;;9.70;100.00;99556.56;5029464;28;20054;-58
2024/02/15 04:59:01;;;;;;;0.20;0.20;;;;;;;9.71;100.00;99550.19;5027214;28;20073;-58
2024/02/15 05:01:33;;;;;;;0.20;0.20;;;;;;;9.69;100.00;99552.28;5027810;28;20125;-58
2024/02/15 05:04:00;;;;;;;0.20;0.20;;;;;;;9.65;100.00;99553.75;5029657;28;20054;-58
2024/02/15 05:06:30;;;;;;;0.20;0.20;;;;;;;9.62;100.00;99562.25;5029548;28;20041;-57
2024/02/15 05:09:00;;;;;;;0.20;0.20;;;;;;;9.56;100.00;99560.50;5030327;28;20114;-58
2024/02/15 05:11:28;;;;;;;0.20;0.20;;;;;;;9.55;100.00;99555.38;5029402;28;20074;-57
2024/02/15 05:13:58;;;;;;;0.20;0.20;;;;;;;9.65;100.00;99560.97;5034238;28;20049;-58
2024/02/15 05:16:25;;;;;;;0.20;0.20;;;;;;;9.62;100.00;99562.25;5039210;28;20152;-58
2024/02/15 05:18:53;;;;;;;0.20;0.20;;;;;;;9.67;100.00;99559.72;5028180;28;20041;-57
2024/02/15 05:21:20;;;;;;;0.20;0.20;;;;;;;9.79;100.00;99562.44;5027794;28;20403;-58
2024/02/15 05:23:48;;;;;;;0.30;0.30;;;;;;;9.84;100.00;99559.06;5030448;28;20598;-58
2024/02/15 05:26:16;;;;;;;0.30;0.30;;;;;;;9.88;100.00;99554.88;5035136;28;20037;-58
2024/02/15 05:28:45;;;;;;;0.30;0.30;;;;;;;9.91;100.00;99544.53;5041525;28;20032;-58
2024/02/15 05:31:16;;;;;;;0.30;0.30;;;;;;;9.88;100.00;99539.63;5030699;28;20769;-58
2024/02/15 05:33:43;;;;;;;0.20;0.20;;;;;;;9.83;100.00;99536.00;5029822;28;20033;-58
2024/02/15 05:36:11;;;;;;;0.20;0.20;;;;;;;9.79;100.00;99540.19;5032190;28;20128;-58
2024/02/15 05:38:39;;;;;;;0.20;0.20;;;;;;;9.80;100.00;99541.81;5032345;28;20098;-58
2024/02/15 05:41:07;;;;;;;0.30;0.30;;;;;;;9.74;100.00;99543.56;5032563;28;20049;-58
2024/02/15 05:43:36;;;;;;;0.30;0.30;;;;;;;9.75;100.00;99539.81;5028781;28;20075;-58
2024/02/15 05:46:03;;;;;;;0.30;0.30;;;;;;;9.68;100.00;99536.44;5018876;28;20512;-58
2024/02/15 05:48:34;;;;;;;0.30;0.30;;;;;;;9.65;100.00;99543.06;5036103;28;20380;-58
2024/02/15 05:51:01;;;;;;;0.20;0.20;;;;;;;9.63;100.00;99541.66;5029173;28;20064;-58
2024/02/15 05:53:28;;;;;;;0.20;0.20;;;;;;;9.48;100.00;99539.41;5025148;28;20045;-58
2024/02/15 05:55:57;;;;;;;0.30;0.30;;;;;;;9.51;100.00;99538.97;5029274;28;20049;-58
2024/02/15 05:58:24;;;;;;;0.20;0.20;;;;;;;9.41;100.00;99536.00;5031829;28;20651;-58
2024/02/15 06:00:53;;;;;;;0.30;0.30;;;;;;;9.45;100.00;99521.13;5029958;28;20045;-58
2024/02/15 06:03:22;;;;;;;0.20;0.20;;;;;;;9.50;100.00;99534.63;5032152;28;20041;-58
2024/02/15 06:05:51;;;;;;;0.20;0.20;;;;;;;9.49;100.00;99525.81;5034776;28;20447;-58
2024/02/15 06:08:20;;;;;;;0.30;0.30;;;;;;;9.11;100.00;99517.25;5033267;28;20048;-58
2024/02/15 06:10:48;;;;;;;0.20;0.20;;;;;;;8.81;100.00;99510.84;5029679;28;20397;-58
2024/02/15 06:13:15;;;;;;;0.30;0.30;;;;;;;8.92;100.00;99519.16;5046113;28;20130;-58
2024/02/15 06:15:42;;;;;;;0.20;0.20;;;;;;;9.11;100.00;99517.25;5036109;28;20536;-57
2024/02/15 06:18:11;;;;;;;0.20;0.20;;;;;;;9.02;100.00;99520.25;5034291;28;20180;-58
2024/02/15 06:20:39;;;;;;;0.30;0.30;;;;;;;9.03;100.00;99518.41;5027663;28;20136;-58
2024/02/15 06:23:08;;;;;;;0.30;0.30;;;;;;;9.10;100.00;99521.00;5019369;28;20069;-58
2024/02/15 06:25:35;;;;;;;0.38;0.38;;;;;;;9.17;100.00;99532.41;5028226;28;20052;-58
2024/02/15 06:28:12;;;;;;;0.30;0.30;;;;;;;9.16;100.00;99526.25;5025582;28;20143;-58
2024/02/15 06:41:41;;;;;;;0.25;0.25;;;;;;;8.96;100.00;99541.72;5032029;28;20040;-58
2024/02/15 06:44:08;;;;;;;0.20;0.20;;;;;;;8.84;100.00;99537.13;5038501;28;20064;-59
2024/02/15 06:46:36;;;;;;;0.30;0.30;;;;;;;8.89;100.00;99536.47;5028598;28;20046;-58
2024/02/15 06:49:04;;;;;;;0.20;0.20;;;;;;;8.93;100.00;99528.81;5034984;28;20076;-58
2024/02/15 06:51:31;;;;;;;0.30;0.30;;;;;;;8.95;100.00;99526.72;5031573;28;20091;-58
2024/02/15 06:54:00;;;;;;;0.32;0.32;;;;;;;9.07;100.00;99528.41;5035249;28;20101;-59
2024/02/15 06:56:27;;;;;;;0.30;0.30;;;;;;;9.15;100.00;99529.97;5037185;28;20177;-58
2024/02/15 06:58:54;;;;;;;0.30;0.30;;;;;;;9.29;100.00;99536.78;5035279;28;20047;-58
2024/02/15 07:01:21;;;;;;;0.30;0.30;;;;;;;9.29;100.00;99531.44;5029665;28;20524;-59
2024/02/15 07:03:50;;;;;;;0.20;0.20;;;;;;;9.23;100.00;99531.50;5030429;28;20495;-58
2024/02/15 07:06:17;;;;;;;0.20;0.20;;;;;;;9.33;100.00;99536.31;5033540;28;20123;-60
2024/02/15 07:08:44;;;;;;;0.30;0.30;;;;;;;9.46;100.00;99520.91;5035649;28;20609;-58
2024/02/15 07:11:12;;;;;;;0.22;0.22;;;;;;;9.63;100.00;99523.72;5028298;28;20049;-59
2024/02/15 07:13:40;;;;;;;0.20;0.20;;;;;;;9.71;100.00;99522.63;5036282;28;20049;-59
2024/02/15 07:16:08;;;;;;;0.20;0.20;;;;;;;9.52;100.00;99521.03;5032366;28;20040;-59
2024/02/15 07:18:35;;;;;;;0.30;0.30;;;;;;;9.35;100.00;99523.53;5032009;28;20072;-59
2024/02/15 07:21:08;;;;;;;0.22;0.22;;;;;;;9.24;100.00;99525.94;5031100;28;20041;-58
2024/02/15 07:23:35;;;;;;;0.30;0.30;;;;;;;9.10;100.00;99531.69;5034351;28;20499;-59
2024/02/15 07:26:03;;;;;;;0.20;0.20;;;;;;;9.28;100.00;99539.66;5032625;28;20107;-59
2024/02/15 07:28:31;;;;;;;0.20;0.20;;;;;;;9.43;100.00;99533.91;5038709;28;20140;-59
2024/02/15 07:31:00;;;;;;;0.20;0.20;;;;;;;9.55;100.00;99540.13;5030853;28;20038;-59
2024/02/15 07:33:28;;;;;;;0.25;0.25;;;;;;;9.61;100.00;99539.22;5035590;28;20061;-60
2024/02/15 07:35:56;;;;;;;0.20;0.20;;;;;;;9.60;100.00;99534.09;5026835;28;20641;-59
2024/02/15 07:38:25;;;;;;;0.20;0.20;;;;;;;9.43;100.00;99536.59;5034934;28;20140;-57
2024/02/15 07:40:52;;;;;;;0.30;0.30;;;;;;;9.51;100.00;99541.63;5032915;28;20048;-57
2024/02/15 07:43:19;;;;;;;0.20;0.20;;;;;;;9.49;100.00;99541.03;5035348;28;20052;-57
2024/02/15 07:45:49;;;;;;;0.20;0.20;;;;;;;9.60;100.00;99542.13;5036252;28;20126;-58
2024/02/15 07:48:16;;;;;;;0.20;0.20;;;;;;;9.60;100.00;99540.25;5031055;28;20132;-58
2024/02/15 07:50:44;;;;;;;0.30;0.30;;;;;;;9.67;100.00;99542.84;5030334;28;20827;-58
2024/02/15 07:53:13;;;;;;;0.20;0.20;;;;;;;9.77;100.00;99547.63;5035157;28;20041;-59
2024/02/15 07:55:41;;;;;;;0.20;0.20;;;;;;;9.89;100.00;99551.16;5029650;28;20071;-59
2024/02/15 07:58:08;;;;;;;0.20;0.20;;;;;;;9.89;100.00;99545.81;5029608;28;20041;-58
2024/02/15 08:00:38;;;;;;;0.20;0.20;;;;;;;9.89;100.00;99548.47;5034090;28;20044;-59
2024/02/15 08:03:07;;;;;;;0.20;0.20;;;;;;;9.89;100.00;99545.81;5035022;28;20060;-59
2024/02/15 08:05:35;;;;;;;0.30;0.30;;;;;;;9.90;100.00;99542.88;5036619;28;20045;-59
2024/02/15 08:08:04;;;;;;;0.30;0.30;;;;;;;9.99;100.00;99546.06;5032232;28;20072;-58
2024/02/15 08:10:31;;;;;;;0.30;0.30;;;;;;;10.17;100.00;99542.47;5033145;28;20132;-58
2024/02/15 08:12:59;;;;;;;0.20;0.20;;;;;;;10.07;100.00;99540.34;5028625;28;20110;-58
2024/02/15 08:15:27;;;;;;;0.20;0.20;;;;;;;10.23;100.00;99535.34;5033451;28;20045;-59
2024/02/15 08:17:55;;;;;;;0.17;0.17;;;;;;;10.25;100.00;99536.75;5033089;28;20133;-60
2024/02/15 08:20:23;;;;;;;0.20;0.20;;;;;;;10.29;100.00;99534.47;5031489;28;20069;-59
2024/02/15 08:22:50;;;;;;;0.25;0.25;;;;;;;10.19;100.00;99534.19;5037367;28;20787;-60
2024/02/15 08:25:18;;;;;;;0.20;0.20;;;;;;;10.29;100.00;99534.47;5032729;28;20105;-60
2024/02/15 08:27:49;;;;;;;0.20;0.20;;;;;;;10.46;100.00;99535.41;5035075;28;20099;-59
2024/02/15 08:30:16;;;;;;;0.17;0.17;;;;;;;10.55;100.00;99539.31;5026712;28;20453;-59
2024/02/15 08:32:45;;;;;;;0.20;0.20;;;;;;;10.76;100.00;99534.44;5026256;28;20041;-60
2024/02/15 08:35:13;;;;;;;0.20;0.20;;;;;;;10.94;100.00;99533.44;5027178;28;20041;-59
2024/02/15 08:37:43;;;;;;;0.28;0.28;;;;;;;11.18;100.00;99536.84;5028926;28;20045;-59
2024/02/15 08:40:13;;;;;;;0.20;0.20;;;;;;;11.27;100.00;99540.81;5034258;28;20045;-59
2024/02/15 08:42:41;;;;;;;0.20;0.20;;;;;;;11.75;100.00;99525.28;5029431;28;20065;-59
2024/02/15 08:45:09;;;;;;;0.20;0.20;;;;;;;11.28;100.00;99526.31;5041065;28;20510;-60
2024/02/15 08:47:38;;;;;;;0.20;0.20;;;;;;;11.45;100.00;99523.69;5042610;28;20148;-58
2024/02/15 08:50:06;;;;;;;0.17;0.17;;;;;;;11.64;100.00;99526.97;5033574;28;20138;-59
2024/02/15 08:52:37;;;;;;;0.20;0.20;;;;;;;11.80;100.00;99522.69;5029685;28;20041;-59
2024/02/15 08:55:07;;;;;;;0.10;0.10;;;;;;;11.87;100.00;99532.22;5033407;28;20045;-58
2024/02/15 08:57:34;;;;;;;0.20;0.20;;;;;;;12.18;100.00;99530.06;5037411;28;20711;-58
2024/02/15 09:00:04;;;;;;;0.20;0.20;;;;;;;12.01;100.00;99530.06;5037478;28;20441;-58
2024/02/15 09:02:32;;;;;;;0.10;0.10;;;;;;;12.01;100.00;99524.69;5038865;28;20052;-61
2024/02/15 09:05:00;;;;;;;0.20;0.20;;;;;;;12.02;100.00;99520.13;5029270;28;20029;-58
2024/02/15 09:07:27;;;;;;;0.20;0.20;;;;;;;12.28;100.00;99518.63;5032795;28;20777;-59
2024/02/15 09:09:56;;;;;;;0.20;0.20;;;;;;;12.59;100.00;99514.50;5039921;28;20052;-60
2024/02/15 09:12:24;;;;;;;0.20;0.20;;;;;;;13.53;100.00;99518.03;5037756;28;20550;-59
2024/02/15 09:14:52;;;;;;;0.10;0.10;;;;;;;13.90;100.00;99518.06;5042148;28;20043;-58
2024/02/15 09:17:19;;;;;;;0.20;0.20;;;;;;;13.98;100.00;99514.13;5033487;28;20041;-58
2024/02/15 09:19:49;;;;;;;0.10;0.10;;;;;;;14.07;100.00;99523.34;5039403;28;20052;-58
2024/02/15 09:22:16;;;;;;;0.20;0.20;;;;;;;13.87;100.00;99515.09;5029688;28;20099;-58
2024/02/15 09:24:43;;;;;;;0.20;0.20;;;;;;;14.30;100.00;99521.34;5028002;28;20122;-58
2024/02/15 09:27:11;;;;;;;0.17;0.17;;;;;;;13.73;100.00;99520.09;5036226;28;20095;-58
2024/02/15 09:29:42;;;;;;;0.10;0.10;;;;;;;14.86;100.00;99509.00;5033324;28;20168;-59
2024/02/15 09:32:09;;;;;;;0.10;0.10;;;;;;;14.38;100.00;99507.38;5034215;28;20045;-58
2024/02/15 09:34:36;;;;;;;0.10;0.10;;;;;;;14.12;100.00;99506.38;5038328;28;21872;-58
2024/02/15 09:37:04;;;;;;;0.10;0.10;;;;;;;14.22;100.00;99503.75;5035764;28;20495;-58
2024/02/15 09:39:32;;;;;;;0.20;0.20;;;;;;;14.08;100.00;99507.97;5037203;28;20083;-61
2024/02/15 09:41:59;;;;;;;0.10;0.10;;;;;;;13.71;100.00;99503.38;5038244;28;20116;-58
2024/02/15 09:44:28;;;;;;;0.10;0.10;;;;;;;13.81;100.00;99508.84;5037923;28;20033;-58
2024/02/15 09:47:03;;;;;;;0.10;0.10;;;;;;;13.73;100.00;99501.25;5033182;28;20076;-58
2024/02/15 09:49:30;;;;;;;0.20;0.20;;;;;;;13.02;100.00;99495.94;5029541;28;20053;-58
2024/02/15 09:51:57;;;;;;;0.10;0.10;;;;;;;12.51;100.00;99496.94;5036026;28;20049;-59
2024/02/15 09:54:25;;;;;;;0.20;0.20;;;;;;;12.96;100.00;99497.75;5040603;28;20155;-59
2024/02/15 09:56:52;;;;;;;0.10;0.10;;;;;;;12.88;100.00;99492.78;5037795;28;20045;-60
2024/02/15 09:59:19;;;;;;;0.10;0.10;;;;;;;13.39;100.00;99493.41;5037751;28;20471;-59
2024/02/15 10:01:46;;;;;;;0.20;0.20;;;;;;;13.88;100.00;99490.59;5041047;28;20045;-58
2024/02/15 10:04:16;;;;;;;0.20;0.20;;;;;;;13.57;100.00;99487.63;5031677;28;20038;-59
2024/02/15 10:06:43;;;;;;;0.20;0.20;;;;;;;13.75;100.00;99489.16;5022454;28;20044;-57
2024/02/15 10:09:29;;;;;;;0.10;0.10;;;;;;;13.43;100.00;99491.81;5039859;28;20507;-57
2024/02/15 10:11:57;;;;;;;0.10;0.10;;;;;;;13.19;100.00;99485.09;5032927;28;20071;-57
2024/02/15 10:14:25;;;;;;;0.20;0.20;;;;;;;13.57;100.00;99487.63;5037128;28;20045;-57
2024/02/15 10:16:52;;;;;;;0.10;0.10;;;;;;;13.24;100.00;99483.25;5037967;28;20047;-59
2024/02/15 10:19:24;;;;;;;0.20;0.20;;;;;;;13.42;100.00;99484.78;5035290;28;20048;-60
2024/02/15 10:21:56;;;;;;;0.20;0.20;;;;;;;14.09;100.00;99488.84;5029159;28;20041;-60
2024/02/15 10:24:24;;;;;;;0.10;0.10;;;;;;;13.69;100.00;99489.34;5029980;28;20411;-59
2024/02/15 10:26:51;;;;;;;0.10;0.10;;;;;;;14.01;100.00;99486.66;5033408;28;20072;-59
2024/02/15 10:29:18;;;;;;;0.10;0.10;;;;;;;14.00;100.00;99490.41;5038523;28;20132;-59
2024/02/15 10:31:53;;;;;;;0.20;0.20;;;;;;;14.03;98.08;99485.31;5029841;28;20052;-58
2024/02/15 10:34:22;;;;;;;0.10;0.10;;;;;;;14.72;96.33;99475.47;5029087;28;20065;-59
2024/02/15 10:36:49;;;;;;;0.20;0.20;;;;;;;14.88;92.93;99482.56;5027861;28;20045;-58
2024/02/15 10:39:20;;;;;;;0.10;0.10;;;;;;;14.70;92.75;99480.31;5031066;28;20077;-58
2024/02/15 10:41:48;;;;;;;0.10;0.10;;;;;;;14.89;90.33;99486.88;5035203;28;20447;-59
2024/02/15 10:44:18;;;;;;;0.10;0.10;;;;;;;15.19;89.32;99465.66;5030574;28;20052;-59
2024/02/15 10:46:50;;;;;;;0.10;0.10;;;;;;;15.76;88.25;99466.53;5019044;28;20064;-58
2024/02/15 10:49:19;;;;;;;0.10;0.10;;;;;;;14.31;94.50;99472.56;5037626;28;20069;-58
2024/02/15 10:51:51;;;;;;;0.10;0.10;;;;;;;14.39;92.37;99461.28;5037621;28;20045;-59
2024/02/15 10:54:25;;;;;;;0.10;0.10;;;;;;;14.72;94.61;99455.78;5032148;28;20095;-59
2024/02/15 10:56:56;;;;;;;0.10;0.10;;;;;;;15.16;91.45;99463.50;5030076;28;20503;-59
2024/02/15 10:59:26;;;;;;;0.20;0.20;;;;;;;15.79;86.92;99457.88;5028895;28;20056;-57
2024/02/15 11:01:56;;;;;;;0.20;0.20;;;;;;;15.71;87.22;99459.25;5032384;28;20048;-60
2024/02/15 11:04:25;;;;;;;0.10;0.10;;;;;;;15.94;82.80;99468.69;5034772;28;20047;-58
2024/02/15 11:06:54;;;;;;;0.00;0.00;;;;;;;15.85;84.61;99460.34;5033385;28;20045;-59
2024/02/15 11:09:21;;;;;;;0.10;0.10;;;;;;;16.04;83.33;99457.84;5035680;28;20041;-59
2024/02/15 11:11:53;;;;;;;0.10;0.10;;;;;;;15.07;82.52;99455.09;5034183;28;20518;-59
2024/02/15 11:14:29;;;;;;;0.00;0.00;;;;;;;15.39;83.27;99454.88;5035499;28;20424;-58
2024/02/15 11:16:57;;;;;;;0.10;0.10;;;;;;;15.75;83.23;99454.94;5037767;28;20048;-59
2024/02/15 11:19:46;;;;;;;0.10;0.10;;;;;;;14.78;86.01;99452.84;5033941;28;20120;-59
2024/02/15 11:22:16;;;;;;;0.10;0.10;;;;;;;15.52;85.55;99429.22;5030026;28;20045;-59
2024/02/15 11:24:47;;;;;;;0.10;0.10;;;;;;;15.54;86.54;99440.56;5032104;28;20053;-59
2024/02/15 11:27:16;;;;;;;0.10;0.10;;;;;;;15.20;84.29;99437.56;5028870;28;20049;-59
2024/02/15 11:29:51;;;;;;;0.10;0.10;;;;;;;15.88;82.27;99435.47;5033114;28;20048;-59
2024/02/15 11:32:39;;;;;;;0.10;0.10;;;;;;;15.59;81.44;99434.34;5033308;28;20045;-59
2024/02/15 11:35:10;;;;;;;0.10;0.10;;;;;;;15.87;80.62;99433.81;5034681;28;20124;-59
2024/02/15 11:38:06;;;;;;;0.10;0.10;;;;;;;16.85;76.93;99431.66;5029911;28;20041;-59
2024/02/15 11:41:04;;;;;;;0.10;0.10;;;;;;;15.42;82.80;99434.63;5035018;28;20095;-58
2024/02/15 11:43:57;;;;;;;0.00;0.00;;;;;;;16.53;80.41;99422.03;4995371;28;20444;-58
2024/02/15 11:46:25;;;;;;;0.10;0.10;;;;;;;16.15;79.07;99432.44;5026275;28;20049;-59